createdAt,value
2018-10-16T00:00:58.897Z,69.04
2018-10-16T00:03:28.328Z,67.07
2018-10-16T00:05:57.676Z,67.71
2018-10-16T00:08:26.025Z,68.19
2018-10-16T00:10:54.405Z,68.02
2018-10-16T00:13:22.770Z,68.07
2018-10-16T00:15:51.117Z,68.11
2018-10-16T00:18:19.509Z,68.07
2018-10-16T00:20:47.848Z,68.64
2018-10-16T00:23:16.197Z,67.92
2018-10-16T00:25:44.613Z,67.72
2018-10-16T00:28:12.972Z,68.37
2018-10-16T00:30:41.311Z,67.86
2018-10-16T00:33:10.716Z,68.06
2018-10-16T00:35:39.048Z,68.17
2018-10-16T00:38:07.423Z,68.01
2018-10-16T00:40:35.792Z,67.93
2018-10-16T00:43:04.150Z,68.33
2018-10-16T00:45:32.488Z,68.36
2018-10-16T00:48:01.869Z,68.56
2018-10-16T00:50:30.217Z,68.17
2018-10-16T00:52:58.564Z,68.37
2018-10-16T00:55:26.888Z,68.06
2018-10-16T00:57:55.237Z,68.29
2018-10-16T01:00:23.580Z,67.98
2018-10-16T01:02:51.923Z,67.82
2018-10-16T01:05:21.343Z,67.94
2018-10-16T01:07:49.684Z,68.05
2018-10-16T01:10:18.048Z,68.02
2018-10-16T01:12:46.416Z,68.08
2018-10-16T01:15:14.764Z,68.50
2018-10-16T01:17:43.105Z,68.74
2018-10-16T01:20:13.156Z,68.88
2018-10-16T01:22:42.177Z,68.69
2018-10-16T01:25:11.624Z,69.26
2018-10-16T01:27:40.511Z,68.65
2018-10-16T01:30:08.998Z,69.37
2018-10-16T01:32:37.982Z,68.32
2018-10-16T01:35:07.296Z,68.48
2018-10-16T01:37:35.648Z,68.09
2018-10-16T01:40:05.364Z,67.44
2018-10-16T01:42:33.712Z,67.16
2018-10-16T01:45:02.072Z,67.57
2018-10-16T01:47:30.473Z,67.18
2018-10-16T01:49:58.816Z,67.35
2018-10-16T01:52:27.160Z,67.58
2018-10-16T01:54:55.517Z,67.37
2018-10-16T01:57:23.876Z,67.10
2018-10-16T01:59:52.292Z,67.33
2018-10-16T02:02:20.640Z,67.58
2018-10-16T02:04:48.989Z,67.42
2018-10-16T02:07:17.337Z,67.56
2018-10-16T02:09:45.688Z,67.80
2018-10-16T02:12:14.045Z,67.76
2018-10-16T02:14:42.452Z,68.01
2018-10-16T02:17:10.753Z,68.26
2018-10-16T02:19:39.105Z,68.38
2018-10-16T02:22:07.452Z,68.54
2018-10-16T02:24:36.822Z,67.84
2018-10-16T02:27:05.225Z,68.07
2018-10-16T02:29:33.576Z,68.54
2018-10-16T02:32:01.925Z,67.75
2018-10-16T02:34:30.285Z,68.62
2018-10-16T02:36:58.632Z,68.50
2018-10-16T02:39:26.968Z,68.07
2018-10-16T02:41:55.313Z,68.33
2018-10-16T02:44:23.655Z,69.15
2018-10-16T02:46:51.992Z,68.80
2018-10-16T02:49:20.340Z,69.48
2018-10-16T02:51:48.671Z,69.16
2018-10-16T02:54:17.052Z,69.08
2018-10-16T02:56:45.384Z,69.30
2018-10-16T02:59:14.837Z,69.42
2018-10-16T03:01:43.172Z,69.23
2018-10-16T03:04:11.524Z,69.60
2018-10-16T03:06:39.861Z,69.12
2018-10-16T03:09:09.048Z,69.62
2018-10-16T03:11:37.387Z,69.60
2018-10-16T03:14:07.796Z,70.06
2018-10-16T03:16:36.145Z,70.75
2018-10-16T03:19:04.484Z,70.59
2018-10-16T03:21:32.844Z,70.42
2018-10-16T03:24:01.186Z,71.14
2018-10-16T03:26:29.529Z,70.81
2018-10-16T03:28:57.873Z,71.11
2018-10-16T03:31:26.404Z,70.64
2018-10-16T03:33:54.765Z,71.22
2018-10-16T03:36:23.098Z,71.17
2018-10-16T03:38:51.428Z,71.50
2018-10-16T03:41:19.747Z,71.83
2018-10-16T03:43:53.911Z,71.49
2018-10-16T03:46:22.236Z,70.74
2018-10-16T03:48:50.600Z,71.13
2018-10-16T03:51:18.955Z,71.07
2018-10-16T03:53:47.937Z,70.92
2018-10-16T03:56:16.313Z,71.33
2018-10-16T03:58:44.640Z,71.21
2018-10-16T04:01:12.972Z,71.81
2018-10-16T04:03:41.292Z,71.80
2018-10-16T04:06:09.640Z,71.45
2018-10-16T04:08:37.996Z,72.20
2018-10-16T04:11:06.499Z,72.25
2018-10-16T04:13:35.927Z,71.87
2018-10-16T04:16:04.284Z,71.76
2018-10-16T04:18:32.608Z,71.79
2018-10-16T04:21:00.985Z,71.39
2018-10-16T04:23:29.296Z,71.19
2018-10-16T04:25:57.743Z,71.67
2018-10-16T04:28:26.284Z,70.95
2018-10-16T04:30:54.621Z,71.51
2018-10-16T04:33:22.997Z,71.43
2018-10-16T04:35:51.337Z,71.21
2018-10-16T04:38:19.688Z,71.76
2018-10-16T04:40:49.125Z,72.12
2018-10-16T04:43:17.589Z,72.34
2018-10-16T04:45:45.944Z,71.93
2018-10-16T04:48:14.360Z,71.97
2018-10-16T04:50:42.826Z,72.67
2018-10-16T04:53:11.182Z,73.23
2018-10-16T04:55:39.504Z,72.91
2018-10-16T04:58:07.976Z,72.44
2018-10-16T05:00:36.359Z,72.65
2018-10-16T05:03:05.050Z,73.21
2018-10-16T05:05:33.441Z,73.51
2018-10-16T05:08:01.809Z,73.29
2018-10-16T05:10:30.278Z,73.33
2018-10-16T05:12:58.598Z,72.40
2018-10-16T05:15:28.148Z,72.78
2018-10-16T05:17:58.629Z,73.12
2018-10-16T05:20:27.161Z,73.10
2018-10-16T05:22:56.424Z,73.56
2018-10-16T05:25:25.744Z,73.77
2018-10-16T05:27:55.940Z,73.74
2018-10-16T05:30:24.326Z,74.03
2018-10-16T05:32:52.756Z,74.02
2018-10-16T05:35:21.121Z,74.48
2018-10-16T05:37:49.473Z,75.15
2018-10-16T05:40:17.846Z,75.13
2018-10-16T05:42:46.185Z,75.50
2018-10-16T05:45:14.757Z,74.93
2018-10-16T05:47:44.348Z,75.58
2018-10-16T05:50:12.764Z,75.32
2018-10-16T05:52:41.111Z,74.79
2018-10-16T05:55:10.008Z,75.33
2018-10-16T05:57:38.352Z,76.36
2018-10-16T06:00:18.788Z,76.46
2018-10-16T06:02:47.792Z,76.39
2018-10-16T06:05:16.919Z,76.05
2018-10-16T06:07:45.296Z,75.98
2018-10-16T06:10:14.104Z,75.96
2018-10-16T06:12:43.197Z,76.40
2018-10-16T06:15:12.876Z,76.34
2018-10-16T06:17:45.436Z,76.13
2018-10-16T06:20:14.031Z,75.79
2018-10-16T06:22:43.133Z,75.61
2018-10-16T06:25:12.564Z,75.14
2018-10-16T06:27:42.178Z,75.32
2018-10-16T06:30:10.839Z,75.40
2018-10-16T06:32:39.389Z,75.51
2018-10-16T06:35:08.553Z,75.17
2018-10-16T06:37:36.932Z,75.30
2018-10-16T06:40:05.913Z,75.46
2018-10-16T06:42:34.340Z,75.06
2018-10-16T06:45:03.867Z,74.66
2018-10-16T06:47:32.288Z,74.91
2018-10-16T06:50:00.647Z,74.35
2018-10-16T06:52:29.021Z,73.83
2018-10-16T06:54:57.499Z,74.26
2018-10-16T06:57:25.818Z,74.56
2018-10-16T06:59:54.181Z,73.47
2018-10-16T07:02:22.561Z,73.91
2018-10-16T07:04:50.913Z,72.93
2018-10-16T07:07:19.412Z,73.11
2018-10-16T07:09:47.628Z,72.12
2018-10-16T07:12:15.993Z,72.48
2018-10-16T07:14:44.373Z,72.20
2018-10-16T07:17:12.721Z,72.38
2018-10-16T07:19:41.120Z,72.53
2018-10-16T07:22:11.045Z,72.52
2018-10-16T07:24:39.397Z,73.23
2018-10-16T07:27:07.917Z,72.60
2018-10-16T07:29:36.593Z,72.15
2018-10-16T07:32:05.425Z,71.14
2018-10-16T07:34:34.377Z,71.40
2018-10-16T07:37:03.797Z,72.09
2018-10-16T07:39:32.228Z,71.18
2018-10-16T07:42:01.670Z,70.69
2018-10-16T07:44:30.122Z,69.18
2018-10-16T07:46:58.641Z,69.15
2018-10-16T07:49:26.985Z,68.49
2018-10-16T07:51:57.368Z,68.71
2018-10-16T07:54:25.721Z,68.71
2018-10-16T07:56:54.056Z,68.82
2018-10-16T07:59:22.429Z,68.94
2018-10-16T08:01:51.907Z,68.38
2018-10-16T08:04:20.320Z,67.69
2018-10-16T08:06:48.695Z,66.97
2018-10-16T08:09:18.152Z,65.91
2018-10-16T08:11:47.616Z,65.99
2018-10-16T08:14:17.253Z,65.64
2018-10-16T08:16:46.936Z,64.92
2018-10-16T08:19:15.644Z,64.75
2018-10-16T08:21:44.815Z,63.33
2018-10-16T08:24:14.252Z,63.47
2018-10-16T08:26:42.700Z,62.87
2018-10-16T08:29:10.996Z,63.74
2018-10-16T08:31:39.624Z,63.44
2018-10-16T08:34:08.084Z,62.47
2018-10-16T08:36:36.489Z,61.74
2018-10-16T08:39:13.900Z,60.84
2018-10-16T08:44:13.117Z,60.32
2018-10-16T08:46:52.780Z,59.07
2018-10-16T08:49:32.337Z,59.60
2018-10-16T08:52:00.704Z,58.15
2018-10-16T08:54:29.065Z,58.27
2018-10-16T08:56:57.426Z,58.10
2018-10-16T08:59:25.809Z,58.01
2018-10-16T09:01:54.236Z,57.06
2018-10-16T09:04:22.613Z,56.26
2018-10-16T09:06:51.030Z,55.39
2018-10-16T09:09:19.576Z,55.12
2018-10-16T09:11:50.090Z,55.05
2018-10-16T09:14:18.905Z,56.19
2018-10-16T09:16:47.576Z,56.18
2018-10-16T09:19:15.972Z,56.79
2018-10-16T09:21:44.440Z,56.00
2018-10-16T09:24:12.813Z,55.95
2018-10-16T09:26:41.217Z,57.22
2018-10-16T09:29:09.743Z,56.68
2018-10-16T09:31:41.869Z,57.21
2018-10-16T09:34:10.536Z,56.64
2018-10-16T09:36:38.907Z,58.50
2018-10-16T09:39:10.410Z,58.21
2018-10-16T09:41:38.759Z,57.36
2018-10-16T09:44:07.146Z,57.41
2018-10-16T09:46:35.514Z,55.60
2018-10-16T09:49:03.910Z,55.50
2018-10-16T09:51:32.299Z,54.80
2018-10-16T09:54:02.041Z,54.49
2018-10-16T09:56:31.649Z,56.07
2018-10-16T09:59:00.085Z,56.48
2018-10-16T10:01:33.697Z,56.28
2018-10-16T10:04:02.177Z,55.55
2018-10-16T10:06:31.699Z,55.75
2018-10-16T10:09:00.073Z,55.82
2018-10-16T10:11:28.486Z,54.94
2018-10-16T10:13:56.861Z,54.17
2018-10-16T10:16:25.233Z,53.43
2018-10-16T10:18:53.701Z,54.69
2018-10-16T10:21:22.075Z,56.36
2018-10-16T10:23:50.476Z,55.44
2018-10-16T10:26:18.897Z,54.77
2018-10-16T10:28:47.246Z,55.80
2018-10-16T10:31:15.604Z,55.62
2018-10-16T10:33:44.045Z,56.57
2018-10-16T10:36:12.622Z,57.06
2018-10-16T10:38:41.114Z,57.16
2018-10-16T10:41:09.666Z,56.77
2018-10-16T10:43:38.022Z,57.70
2018-10-16T10:46:06.837Z,57.75
2018-10-16T10:48:35.196Z,56.71
2018-10-16T10:51:03.701Z,57.50
2018-10-16T10:53:31.918Z,57.39
2018-10-16T10:56:00.284Z,57.02
2018-10-16T10:58:28.637Z,57.59
2018-10-16T11:00:57.008Z,57.22
2018-10-16T11:03:25.488Z,56.47
2018-10-16T11:05:53.748Z,57.29
2018-10-16T11:08:22.108Z,58.04
2018-10-16T11:10:51.508Z,57.50
2018-10-16T11:13:19.864Z,57.11
2018-10-16T11:15:48.369Z,57.16
2018-10-16T11:18:17.724Z,57.04
2018-10-16T11:20:46.093Z,55.94
2018-10-16T11:23:14.454Z,55.42
2018-10-16T11:25:42.813Z,55.24
2018-10-16T11:28:11.180Z,55.87
2018-10-16T11:30:39.557Z,56.00
2018-10-16T11:33:07.976Z,55.95
2018-10-16T11:35:36.290Z,55.76
2018-10-16T11:38:04.761Z,54.78
2018-10-16T11:40:33.141Z,55.94
2018-10-16T11:43:01.484Z,55.02
2018-10-16T11:45:29.856Z,55.51
2018-10-16T11:47:58.217Z,57.23
2018-10-16T11:50:26.613Z,56.39
2018-10-16T11:52:54.978Z,57.94
2018-10-16T11:55:23.353Z,57.85
2018-10-16T11:57:51.694Z,58.09
2018-10-16T12:00:20.102Z,57.19
2018-10-16T12:02:48.876Z,57.72
2018-10-16T12:05:17.236Z,58.79
2018-10-16T12:07:45.593Z,59.45
2018-10-16T12:10:15.988Z,59.31
2018-10-16T12:12:44.333Z,60.24
2018-10-16T12:15:12.680Z,59.75
2018-10-16T12:17:49.120Z,60.11
2018-10-16T12:20:20.552Z,60.83
2018-10-16T12:22:48.910Z,60.17
2018-10-16T12:25:17.413Z,59.72
2018-10-16T12:27:45.728Z,60.35
2018-10-16T12:30:16.121Z,60.61
2018-10-16T12:32:44.588Z,60.17
2018-10-16T12:35:12.929Z,60.46
2018-10-16T12:37:41.270Z,60.22
2018-10-16T12:40:10.936Z,60.01
2018-10-16T12:42:39.447Z,60.58
2018-10-16T12:45:08.453Z,60.48
2018-10-16T12:47:36.811Z,60.60
2018-10-16T12:50:05.533Z,59.79
2018-10-16T12:52:33.874Z,59.79
2018-10-16T12:55:02.277Z,59.97
2018-10-16T12:57:30.681Z,59.69
2018-10-16T12:59:59.076Z,59.46
2018-10-16T13:02:27.444Z,59.49
2018-10-16T13:04:57.812Z,60.17
2018-10-16T13:07:35.284Z,60.68
2018-10-16T13:10:04.549Z,61.52
2018-10-16T13:12:32.888Z,60.79
2018-10-16T13:15:02.347Z,60.81
2018-10-16T13:17:31.797Z,61.54
2018-10-16T13:20:00.214Z,61.03
2018-10-16T13:22:28.580Z,61.38
2018-10-16T13:24:56.966Z,61.66
2018-10-16T13:27:25.369Z,61.41
2018-10-16T13:29:53.799Z,62.25
2018-10-16T13:32:22.166Z,61.84
2018-10-16T13:34:50.678Z,62.94
2018-10-16T13:37:19.090Z,63.23
2018-10-16T13:39:47.453Z,62.60
2018-10-16T13:42:15.889Z,62.42
2018-10-16T13:44:45.329Z,63.35
2018-10-16T13:47:13.701Z,64.23
2018-10-16T13:49:42.063Z,63.20
2018-10-16T13:52:10.478Z,63.74
2018-10-16T13:54:38.849Z,64.78
2018-10-16T13:57:07.224Z,64.25
2018-10-16T13:59:35.661Z,63.92
2018-10-16T14:02:04.248Z,64.15
2018-10-16T14:04:32.553Z,63.82
2018-10-16T14:07:00.925Z,64.56
2018-10-16T14:09:29.285Z,65.11
2018-10-16T14:11:58.673Z,65.95
2018-10-16T14:14:27.033Z,66.69
2018-10-16T14:16:55.391Z,67.53
2018-10-16T14:19:23.746Z,68.07
2018-10-16T14:21:52.181Z,67.51
2018-10-16T14:24:20.531Z,67.81
2018-10-16T14:26:48.952Z,68.22
2018-10-16T14:29:18.381Z,69.09
2018-10-16T14:31:46.736Z,69.32
2018-10-16T14:34:15.108Z,70.05
2018-10-16T14:36:43.722Z,69.58
2018-10-16T14:39:12.826Z,70.15
2018-10-16T14:41:42.277Z,70.03
2018-10-16T14:44:11.729Z,70.01
2018-10-16T14:46:40.037Z,69.76
2018-10-16T14:49:09.417Z,70.23
2018-10-16T14:51:41.593Z,70.89
2018-10-16T14:54:09.969Z,71.73
2018-10-16T14:56:38.337Z,71.94
2018-10-16T14:59:06.711Z,73.20
2018-10-16T15:01:35.141Z,73.20
2018-10-16T15:04:03.498Z,73.11
2018-10-16T15:06:31.848Z,74.29
2018-10-16T15:09:01.217Z,73.85
2018-10-16T15:11:29.689Z,73.33
2018-10-16T15:13:58.043Z,73.75
2018-10-16T15:16:27.564Z,74.28
2018-10-16T15:18:55.913Z,74.56
2018-10-16T15:21:24.301Z,75.45
2018-10-16T15:23:52.747Z,74.90
2018-10-16T15:26:22.088Z,75.04
2018-10-16T15:28:50.444Z,76.00
2018-10-16T15:31:18.800Z,75.54
2018-10-16T15:33:47.145Z,75.59
2018-10-16T15:36:15.515Z,76.41
2018-10-16T15:38:43.876Z,76.25
2018-10-16T15:41:12.249Z,77.13
2018-10-16T15:43:40.608Z,78.12
2018-10-16T15:46:09.073Z,78.56
2018-10-16T15:48:37.372Z,78.92
2018-10-16T15:51:05.745Z,78.73
2018-10-16T15:53:34.130Z,79.02
2018-10-16T15:56:02.529Z,80.18
2018-10-16T15:58:30.984Z,80.05
2018-10-16T16:00:59.409Z,79.98
2018-10-16T16:03:27.816Z,80.02
2018-10-16T16:05:56.207Z,79.61
2018-10-16T16:08:24.820Z,79.03
2018-10-16T16:10:53.150Z,79.16
2018-10-16T16:13:21.502Z,79.48
2018-10-16T16:15:51.878Z,80.12
2018-10-16T16:18:20.365Z,80.36
2018-10-16T16:20:48.623Z,80.03
2018-10-16T16:23:17.022Z,80.32
2018-10-16T16:25:45.402Z,80.58
2018-10-16T16:28:13.808Z,80.62
2018-10-16T16:30:44.145Z,80.54
2018-10-16T16:33:12.495Z,80.81
2018-10-16T16:35:40.870Z,81.25
2018-10-16T16:38:10.371Z,81.03
2018-10-16T16:40:38.685Z,81.14
2018-10-16T16:43:07.060Z,81.48
2018-10-16T16:45:35.430Z,81.43
2018-10-16T16:48:05.760Z,81.58
2018-10-16T16:50:34.137Z,81.07
2018-10-16T16:53:04.606Z,80.94
2018-10-16T16:55:32.949Z,80.42
2018-10-16T16:58:01.321Z,81.14
2018-10-16T17:00:29.694Z,81.33
2018-10-16T17:02:58.053Z,81.12
2018-10-16T17:05:26.453Z,82.65
2018-10-16T17:07:54.842Z,82.60
2018-10-16T17:10:23.169Z,83.40
2018-10-16T17:12:55.553Z,83.48
2018-10-16T17:15:23.892Z,83.78
2018-10-16T17:17:52.258Z,83.89
2018-10-16T17:20:20.629Z,83.93
2018-10-16T17:22:48.985Z,83.94
2018-10-16T17:25:19.478Z,83.45
2018-10-16T17:27:48.749Z,83.09
2018-10-16T17:30:17.692Z,83.57
2018-10-16T17:32:46.519Z,83.94
2018-10-16T17:35:15.309Z,84.39
2018-10-16T17:37:43.777Z,85.54
2018-10-16T17:40:14.526Z,85.41
2018-10-16T17:42:42.952Z,85.06
2018-10-16T17:45:16.272Z,85.02
2018-10-16T17:47:46.005Z,84.85
2018-10-16T17:50:16.184Z,84.47
2018-10-16T17:52:44.556Z,84.26
2018-10-16T17:55:13.827Z,84.01
2018-10-16T17:57:42.282Z,83.40
2018-10-16T18:00:15.807Z,83.28
2018-10-16T18:02:44.641Z,84.00
2018-10-16T18:05:13.623Z,83.79
2018-10-16T18:07:42.537Z,85.00
2018-10-16T18:10:10.927Z,84.91
2018-10-16T18:12:41.399Z,85.63
2018-10-16T18:15:11.793Z,84.71
2018-10-16T18:17:40.930Z,84.65
2018-10-16T18:20:10.868Z,84.73
2018-10-16T18:22:39.292Z,84.36
2018-10-16T18:25:09.078Z,84.19
2018-10-16T18:27:37.443Z,84.65
2018-10-16T18:30:08.309Z,84.23
2018-10-16T18:32:36.704Z,84.15
2018-10-16T18:35:05.077Z,84.89
2018-10-16T18:37:33.638Z,85.03
2018-10-16T18:40:02.042Z,84.00
2018-10-16T18:42:30.353Z,84.34
2018-10-16T18:44:58.786Z,84.21
2018-10-16T18:47:27.500Z,84.24
2018-10-16T18:49:55.924Z,83.85
2018-10-16T18:52:24.270Z,83.87
2018-10-16T18:54:52.592Z,84.40
2018-10-16T18:57:21.944Z,84.19
2018-10-16T18:59:50.298Z,84.13
2018-10-16T19:02:18.679Z,84.50
2018-10-16T19:04:47.010Z,84.48
2018-10-16T19:07:15.340Z,84.81
2018-10-16T19:09:43.704Z,84.26
2018-10-16T19:12:12.156Z,84.69
2018-10-16T19:14:40.496Z,84.70
2018-10-16T19:17:08.856Z,84.90
2018-10-16T19:19:37.240Z,85.15
2018-10-16T19:22:06.621Z,85.20
2018-10-16T19:24:34.960Z,85.19
2018-10-16T19:27:03.439Z,85.25
2018-10-16T19:29:31.765Z,85.11
2018-10-16T19:32:00.129Z,85.44
2018-10-16T19:34:28.496Z,86.01
2018-10-16T19:36:56.869Z,85.62
2018-10-16T19:39:25.229Z,86.11
2018-10-16T19:41:53.646Z,85.80
2018-10-16T19:44:22.001Z,85.70
2018-10-16T19:46:50.362Z,85.42
2018-10-16T19:49:18.831Z,86.05
2018-10-16T19:51:47.272Z,86.04
2018-10-16T19:54:15.637Z,85.79
2018-10-16T19:56:45.051Z,85.43
2018-10-16T19:59:14.405Z,85.57
2018-10-16T20:01:42.821Z,85.43
2018-10-16T20:04:11.212Z,85.60
2018-10-16T20:06:39.568Z,86.31
2018-10-16T20:09:09.648Z,86.15
2018-10-16T20:11:38.001Z,86.31
2018-10-16T20:14:06.484Z,85.98
2018-10-16T20:16:34.750Z,86.58
2018-10-16T20:19:03.137Z,86.23
2018-10-16T20:21:31.502Z,86.12
2018-10-16T20:23:59.863Z,85.80
2018-10-16T20:26:28.269Z,86.11
2018-10-16T20:28:57.788Z,86.95
2018-10-16T20:31:26.149Z,87.04
2018-10-16T20:33:54.538Z,86.80
2018-10-16T20:36:22.920Z,86.17
2018-10-16T20:38:51.304Z,86.18
2018-10-16T20:41:19.791Z,86.13
2018-10-16T20:43:48.136Z,86.35
2018-10-16T20:46:16.536Z,86.33
2018-10-16T20:48:44.925Z,86.46
2018-10-16T20:51:13.264Z,85.75
2018-10-16T20:53:42.913Z,86.58
2018-10-16T20:56:11.497Z,85.86
2018-10-16T20:58:40.889Z,86.55
2018-10-16T21:01:10.407Z,86.40
2018-10-16T21:03:38.836Z,86.10
2018-10-16T21:06:07.575Z,86.44
2018-10-16T21:08:35.653Z,86.36
2018-10-16T21:11:04.298Z,86.16
2018-10-16T21:13:33.659Z,86.42
2018-10-16T21:16:02.032Z,86.38
2018-10-16T21:18:30.444Z,86.00
2018-10-16T21:20:58.868Z,86.45
2018-10-16T21:23:27.245Z,87.01
2018-10-16T21:25:55.658Z,87.04
2018-10-16T21:28:24.030Z,87.75
2018-10-16T21:30:52.393Z,87.31
2018-10-16T21:33:20.863Z,88.09
2018-10-16T21:35:54.752Z,87.24
2018-10-16T21:38:24.205Z,87.99
2018-10-16T21:40:52.628Z,88.51
2018-10-16T21:43:20.961Z,88.04
2018-10-16T21:45:51.449Z,88.54
2018-10-16T21:48:19.830Z,89.36
2018-10-16T21:50:48.266Z,89.45
2018-10-16T21:53:16.677Z,89.46
2018-10-16T21:55:45.157Z,89.87
2018-10-16T21:58:13.773Z,89.53
2018-10-16T22:00:47.537Z,89.43
2018-10-16T22:03:15.916Z,89.69
2018-10-16T22:05:44.312Z,89.14
2018-10-16T22:08:12.840Z,89.24
2018-10-16T22:10:41.166Z,89.31
2018-10-16T22:13:10.100Z,89.41
2018-10-16T22:15:38.493Z,89.63
2018-10-16T22:18:06.929Z,88.67
2018-10-16T22:20:35.316Z,89.05
2018-10-16T22:23:05.104Z,88.84
2018-10-16T22:25:33.461Z,88.05
2018-10-16T22:28:01.884Z,87.57
2018-10-16T22:30:32.432Z,88.38
2018-10-16T22:33:00.796Z,89.06
2018-10-16T22:35:29.144Z,89.06
2018-10-16T22:37:57.624Z,88.75
2018-10-16T22:40:25.970Z,88.88
2018-10-16T22:42:54.385Z,88.76
2018-10-16T22:45:23.205Z,86.41
2018-10-16T22:47:51.554Z,86.52
2018-10-16T22:50:19.935Z,86.83
2018-10-16T22:52:49.688Z,87.37
2018-10-16T22:55:18.124Z,87.77
2018-10-16T22:57:46.496Z,88.18
2018-10-16T23:00:17.853Z,87.28
2018-10-16T23:02:58.996Z,87.02
2018-10-16T23:05:28.381Z,87.81
2018-10-16T23:07:56.778Z,87.56
2018-10-16T23:10:25.144Z,87.43
2018-10-16T23:12:58.988Z,88.14
2018-10-16T23:15:27.441Z,88.87
2018-10-16T23:17:55.795Z,89.05
2018-10-16T23:20:24.278Z,89.55
2018-10-16T23:22:52.682Z,89.36
2018-10-16T23:25:21.035Z,89.67
2018-10-16T23:27:49.365Z,89.88
2018-10-16T23:30:17.771Z,89.37
2018-10-16T23:32:46.436Z,89.95
2018-10-16T23:35:14.841Z,89.56
2018-10-16T23:37:43.149Z,90.10
2018-10-16T23:40:11.512Z,90.81
2018-10-16T23:42:39.968Z,90.66
2018-10-16T23:45:08.401Z,90.46
2018-10-16T23:47:36.760Z,90.92
2018-10-16T23:50:05.317Z,91.12
2018-10-16T23:52:33.696Z,91.45
2018-10-16T23:55:02.127Z,91.02
2018-10-16T23:57:30.650Z,91.48
2018-10-16T23:59:59.091Z,91.69
